createdAt,value
2018-06-12T00:01:05.276Z,18.20
2018-06-12T00:03:33.687Z,18.30
2018-06-12T00:06:02.191Z,18.30
2018-06-12T00:08:30.757Z,18.20
2018-06-12T00:10:59.265Z,18.20
2018-06-12T00:13:27.733Z,18.20
2018-06-12T00:15:56.747Z,18.20
2018-06-12T00:18:25.190Z,18.20
2018-06-12T00:20:53.584Z,18.20
2018-06-12T00:23:21.991Z,18.20
2018-06-12T00:25:50.424Z,18.30
2018-06-12T00:28:18.904Z,18.30
2018-06-12T00:30:47.398Z,18.30
2018-06-12T00:33:15.779Z,18.40
2018-06-12T00:35:44.210Z,18.30
2018-06-12T00:38:12.624Z,18.30
2018-06-12T00:40:41.041Z,18.30
2018-06-12T00:43:09.451Z,18.40
2018-06-12T00:45:37.999Z,18.30
2018-06-12T00:48:06.540Z,18.40
2018-06-12T00:50:34.993Z,18.30
2018-06-12T00:53:03.510Z,18.30
2018-06-12T00:55:31.961Z,18.30
2018-06-12T00:58:00.361Z,18.30
2018-06-12T01:00:28.851Z,18.30
2018-06-12T01:02:57.271Z,18.30
2018-06-12T01:05:25.755Z,18.30
2018-06-12T01:07:54.185Z,18.20
2018-06-12T01:10:22.610Z,18.20
2018-06-12T01:12:51.021Z,18.20
2018-06-12T01:17:47.566Z,18.30
2018-06-12T01:20:16.044Z,18.40
2018-06-12T01:22:44.468Z,18.40
2018-06-12T01:25:12.929Z,18.40
2018-06-12T01:27:41.534Z,18.40
2018-06-12T01:30:10.069Z,18.40
2018-06-12T01:32:38.529Z,18.40
2018-06-12T01:35:06.929Z,18.50
2018-06-12T01:37:35.470Z,18.50
2018-06-12T01:40:03.934Z,18.50
2018-06-12T01:42:32.351Z,18.40
2018-06-12T01:45:00.732Z,18.40
2018-06-12T01:47:29.108Z,18.50
2018-06-12T01:49:57.504Z,18.50
2018-06-12T01:52:25.970Z,18.50
2018-06-12T01:54:54.377Z,18.50
2018-06-12T01:57:22.770Z,18.50
2018-06-12T01:59:51.270Z,18.60
2018-06-12T02:02:20.089Z,18.50
2018-06-12T02:04:48.564Z,18.50
2018-06-12T02:07:17.213Z,18.50
2018-06-12T02:09:45.670Z,18.60
2018-06-12T02:12:14.091Z,18.60
2018-06-12T02:14:42.513Z,18.60
2018-06-12T02:17:10.965Z,18.50
2018-06-12T02:19:39.392Z,18.50
2018-06-12T02:24:36.084Z,18.50
2018-06-12T02:27:04.557Z,18.50
2018-06-12T02:29:33.017Z,18.50
2018-06-12T02:32:01.469Z,18.50
2018-06-12T02:34:29.907Z,18.50
2018-06-12T02:36:58.359Z,18.50
2018-06-12T02:39:26.779Z,18.50
2018-06-12T02:41:55.220Z,18.50
2018-06-12T02:44:23.705Z,18.50
2018-06-12T02:46:52.182Z,18.50
2018-06-12T02:49:20.977Z,18.50
2018-06-12T02:51:49.415Z,18.40
2018-06-12T02:54:17.794Z,18.50
2018-06-12T02:56:46.288Z,18.50
2018-06-12T02:59:14.698Z,18.50
2018-06-12T03:01:43.117Z,18.40
2018-06-12T03:04:11.481Z,18.50
2018-06-12T03:06:39.977Z,18.50
2018-06-12T03:09:09.223Z,18.40
2018-06-12T03:11:37.783Z,18.40
2018-06-12T03:14:06.201Z,18.40
2018-06-12T03:16:34.667Z,18.50
2018-06-12T03:19:03.138Z,18.50
2018-06-12T03:21:31.646Z,18.40
2018-06-12T03:24:00.119Z,18.40
2018-06-12T03:26:28.560Z,18.40
2018-06-12T03:28:57.040Z,18.50
2018-06-12T03:31:25.464Z,18.40
2018-06-12T03:33:53.905Z,18.40
2018-06-12T03:36:22.325Z,18.40
2018-06-12T03:38:50.770Z,18.40
2018-06-12T03:41:19.175Z,18.40
2018-06-12T03:43:47.564Z,18.50
2018-06-12T03:46:16.096Z,18.50
2018-06-12T03:48:44.597Z,18.40
2018-06-12T03:51:13.056Z,18.40
2018-06-12T03:53:41.450Z,18.50
2018-06-12T03:56:10.021Z,18.40
2018-06-12T03:58:38.429Z,18.40
2018-06-12T04:01:06.949Z,18.40
2018-06-12T04:03:35.361Z,18.40
2018-06-12T04:06:03.904Z,18.40
2018-06-12T04:08:32.465Z,18.40
2018-06-12T04:11:00.871Z,18.50
2018-06-12T04:13:29.300Z,18.50
2018-06-12T04:15:57.991Z,18.50
2018-06-12T04:18:26.495Z,18.60
2018-06-12T04:20:55.759Z,18.50
2018-06-12T04:23:24.227Z,18.40
2018-06-12T04:25:52.636Z,18.40
2018-06-12T04:28:21.067Z,18.40
2018-06-12T04:30:49.496Z,18.40
2018-06-12T04:33:17.953Z,18.40
2018-06-12T04:35:46.396Z,18.50
2018-06-12T04:38:14.801Z,18.50
2018-06-12T04:40:43.218Z,18.60
2018-06-12T04:43:11.665Z,18.60
2018-06-12T04:45:40.413Z,18.80
2018-06-12T04:48:08.931Z,18.90
2018-06-12T04:50:37.303Z,18.90
2018-06-12T04:53:05.778Z,19.00
2018-06-12T04:55:34.281Z,19.10
2018-06-12T04:58:02.756Z,19.20
2018-06-12T05:00:31.197Z,19.20
2018-06-12T05:02:59.666Z,19.30
2018-06-12T05:05:28.107Z,19.10
2018-06-12T05:07:56.554Z,19.10
2018-06-12T05:10:25.048Z,19.20
2018-06-12T05:12:53.470Z,19.30
2018-06-12T05:15:21.884Z,19.40
2018-06-12T05:17:50.324Z,19.40
2018-06-12T05:20:18.930Z,19.20
2018-06-12T05:22:47.347Z,19.40
2018-06-12T05:25:15.766Z,19.30
2018-06-12T05:27:44.230Z,19.20
2018-06-12T05:30:12.781Z,19.30
2018-06-12T05:32:41.225Z,19.40
2018-06-12T05:35:09.611Z,19.40
2018-06-12T05:37:38.008Z,19.30
2018-06-12T05:40:06.508Z,19.20
2018-06-12T05:42:34.879Z,19.20
2018-06-12T05:45:03.420Z,19.30
2018-06-12T05:47:31.811Z,19.30
2018-06-12T05:50:00.312Z,19.30
2018-06-12T05:52:28.737Z,19.10
2018-06-12T05:54:57.151Z,19.20
2018-06-12T05:57:25.728Z,19.20
2018-06-12T05:59:54.363Z,19.20
2018-06-12T06:02:22.817Z,19.20
2018-06-12T06:04:51.246Z,19.20
2018-06-12T06:07:19.700Z,19.20
2018-06-12T06:09:48.110Z,19.20
2018-06-12T06:12:16.517Z,19.20
2018-06-12T06:14:44.916Z,19.20
2018-06-12T06:17:13.435Z,19.30
2018-06-12T06:22:09.987Z,19.30
2018-06-12T06:27:06.588Z,19.40
2018-06-12T06:29:34.966Z,19.40
2018-06-12T06:32:03.446Z,19.40
2018-06-12T06:34:32.069Z,19.50
2018-06-12T06:37:00.659Z,19.70
2018-06-12T06:39:29.797Z,19.90
2018-06-12T06:41:58.259Z,20.10
2018-06-12T06:44:26.718Z,20.10
2018-06-12T06:46:55.146Z,20.20
2018-06-12T06:49:23.572Z,20.10
2018-06-12T06:51:52.055Z,20.10
2018-06-12T06:54:20.531Z,20.10
2018-06-12T06:56:49.106Z,20.10
2018-06-12T06:59:17.537Z,20.10
2018-06-12T07:01:46.034Z,20.20
2018-06-12T07:04:14.615Z,20.30
2018-06-12T07:06:43.049Z,20.50
2018-06-12T07:09:11.494Z,20.60
2018-06-12T07:11:40.022Z,20.70
2018-06-12T07:14:08.511Z,21.10
2018-06-12T07:16:37.337Z,21.20
2018-06-12T07:19:05.847Z,21.50
2018-06-12T07:21:34.270Z,21.70
2018-06-12T07:24:02.797Z,22.00
2018-06-12T07:26:31.220Z,22.60
2018-06-12T07:28:59.640Z,22.90
2018-06-12T07:31:28.077Z,22.70
2018-06-12T07:33:56.515Z,22.30
2018-06-12T07:36:24.969Z,22.40
2018-06-12T07:38:53.497Z,22.30
2018-06-12T07:41:21.922Z,22.20
2018-06-12T07:43:50.390Z,22.30
2018-06-12T07:46:18.855Z,22.10
2018-06-12T07:48:47.346Z,22.20
2018-06-12T07:51:15.861Z,22.60
2018-06-12T07:53:44.272Z,23.00
2018-06-12T07:56:12.776Z,23.20
2018-06-12T07:58:41.321Z,23.30
2018-06-12T08:01:10.168Z,23.10
2018-06-12T08:03:38.751Z,23.10
2018-06-12T08:06:07.234Z,23.30
2018-06-12T08:08:35.787Z,23.80
2018-06-12T08:11:04.281Z,24.90
2018-06-12T08:13:32.782Z,25.70
2018-06-12T08:16:01.184Z,25.10
2018-06-12T08:18:29.716Z,25.40
2018-06-12T08:20:58.184Z,25.80
2018-06-12T08:23:26.721Z,25.50
2018-06-12T08:25:55.265Z,24.50
2018-06-12T08:28:23.825Z,24.70
2018-06-12T08:30:52.342Z,24.70
2018-06-12T08:33:20.925Z,25.00
2018-06-12T08:35:49.407Z,24.70
2018-06-12T08:38:18.110Z,25.00
2018-06-12T08:40:46.544Z,24.40
2018-06-12T08:43:15.033Z,24.80
2018-06-12T08:45:43.505Z,25.00
2018-06-12T08:48:12.244Z,24.80
2018-06-12T08:50:40.753Z,24.40
2018-06-12T08:53:09.183Z,25.00
2018-06-12T08:55:37.575Z,25.40
2018-06-12T08:58:06.144Z,25.90
2018-06-12T09:00:34.692Z,26.40
2018-06-12T09:03:03.152Z,26.40
2018-06-12T09:05:31.651Z,26.30
2018-06-12T09:08:00.110Z,26.70
2018-06-12T09:10:28.529Z,27.60
2018-06-12T09:12:57.129Z,27.20
2018-06-12T09:15:25.665Z,26.30
2018-06-12T09:17:59.546Z,24.90
2018-06-12T09:20:28.155Z,24.80
2018-06-12T09:22:56.636Z,24.50
2018-06-12T09:25:25.164Z,24.50
2018-06-12T09:27:53.736Z,24.80
2018-06-12T09:30:22.183Z,24.80
2018-06-12T09:32:50.630Z,24.70
2018-06-12T09:35:19.109Z,24.70
2018-06-12T09:37:47.570Z,24.60
2018-06-12T09:40:16.114Z,24.90
2018-06-12T09:42:44.624Z,25.30
2018-06-12T09:45:13.122Z,25.80
2018-06-12T09:47:41.618Z,25.40
2018-06-12T09:50:10.096Z,25.70
2018-06-12T09:52:38.541Z,26.00
2018-06-12T09:55:07.028Z,26.20
2018-06-12T09:57:35.794Z,26.50
2018-06-12T10:00:04.836Z,26.60
2018-06-12T10:02:33.413Z,25.80
2018-06-12T10:05:02.260Z,25.70
2018-06-12T10:07:30.980Z,26.30
2018-06-12T10:09:59.472Z,27.10
2018-06-12T10:12:27.998Z,26.90
2018-06-12T10:14:56.516Z,27.40
2018-06-12T10:17:24.961Z,27.60
2018-06-12T10:19:53.501Z,28.10
2018-06-12T10:22:22.013Z,28.70
2018-06-12T10:24:50.599Z,29.30
2018-06-12T10:27:19.214Z,28.10
2018-06-12T10:29:47.840Z,28.30
2018-06-12T10:32:16.393Z,27.80
2018-06-12T10:34:44.892Z,26.80
2018-06-12T10:37:13.619Z,25.90
2018-06-12T10:39:42.194Z,25.80
2018-06-12T10:42:10.799Z,25.70
2018-06-12T10:44:39.306Z,26.00
2018-06-12T10:47:07.838Z,26.20
2018-06-12T10:49:36.459Z,26.70
2018-06-12T10:52:04.981Z,26.30
2018-06-12T10:54:33.434Z,27.20
2018-06-12T10:57:01.926Z,27.70
2018-06-12T10:59:30.547Z,27.90
2018-06-12T11:01:59.059Z,28.10
2018-06-12T11:04:27.690Z,28.40
2018-06-12T11:06:56.155Z,29.30
2018-06-12T11:09:24.616Z,30.00
2018-06-12T11:11:53.176Z,30.50
2018-06-12T11:14:21.676Z,29.30
2018-06-12T11:16:50.305Z,29.50
2018-06-12T11:19:18.839Z,28.70
2018-06-12T11:21:47.356Z,29.80
2018-06-12T11:24:15.845Z,29.50
2018-06-12T11:26:44.504Z,28.90
2018-06-12T11:29:12.998Z,28.40
2018-06-12T11:31:41.451Z,27.90
2018-06-12T11:34:10.021Z,28.30
2018-06-12T11:39:07.826Z,27.80
2018-06-12T11:41:36.340Z,26.20
2018-06-12T11:44:04.808Z,26.40
2018-06-12T11:46:33.267Z,27.00
2018-06-12T11:49:01.776Z,26.40
2018-06-12T11:51:30.259Z,26.70
2018-06-12T11:53:58.755Z,26.00
2018-06-12T11:56:27.369Z,26.30
2018-06-12T11:58:55.902Z,25.90
2018-06-12T12:01:24.562Z,26.30
2018-06-12T12:03:53.220Z,26.20
2018-06-12T12:06:21.738Z,25.90
2018-06-12T12:08:50.153Z,25.90
2018-06-12T12:11:18.768Z,26.30
2018-06-12T12:13:47.230Z,26.20
2018-06-12T12:16:15.672Z,25.90
2018-06-12T12:18:44.253Z,25.30
2018-06-12T12:21:12.843Z,25.20
2018-06-12T12:23:41.423Z,25.00
2018-06-12T12:26:09.924Z,25.50
2018-06-12T12:28:38.451Z,25.80
2018-06-12T12:31:07.571Z,27.30
2018-06-12T12:33:36.321Z,29.20
2018-06-12T12:36:06.423Z,30.00
2018-06-12T12:38:34.940Z,30.50
2018-06-12T12:41:03.409Z,31.00
2018-06-12T12:43:32.052Z,31.80
2018-06-12T12:46:00.549Z,32.10
2018-06-12T12:48:29.493Z,32.70
2018-06-12T12:50:58.036Z,34.20
2018-06-12T12:53:26.540Z,34.20
2018-06-12T12:55:55.110Z,34.10
2018-06-12T12:58:23.609Z,33.30
2018-06-12T13:00:52.144Z,32.60
2018-06-12T13:03:20.885Z,32.90
2018-06-12T13:05:49.421Z,32.30
2018-06-12T13:08:17.968Z,30.70
2018-06-12T13:10:46.632Z,30.50
2018-06-12T13:13:15.332Z,29.50
2018-06-12T13:15:43.813Z,28.00
2018-06-12T13:18:12.565Z,27.60
2018-06-12T13:20:41.263Z,27.60
2018-06-12T13:23:09.960Z,26.90
2018-06-12T13:25:38.536Z,26.80
2018-06-12T13:28:07.201Z,26.70
2018-06-12T13:30:35.920Z,26.80
2018-06-12T13:33:04.466Z,26.70
2018-06-12T13:35:33.072Z,26.50
2018-06-12T13:38:01.540Z,26.60
2018-06-12T13:40:30.013Z,27.00
2018-06-12T13:42:58.541Z,27.00
2018-06-12T13:45:27.149Z,26.80
2018-06-12T13:47:55.583Z,26.50
2018-06-12T13:50:24.045Z,26.90
2018-06-12T13:52:52.766Z,27.30
2018-06-12T13:55:21.286Z,27.00
2018-06-12T13:57:49.771Z,25.70
2018-06-12T14:00:18.335Z,25.40
2018-06-12T14:02:46.916Z,25.30
2018-06-12T14:05:15.399Z,25.70
2018-06-12T14:07:43.920Z,25.80
2018-06-12T14:10:12.508Z,26.10
2018-06-12T14:12:41.061Z,26.50
2018-06-12T14:15:09.585Z,26.80
2018-06-12T14:17:38.059Z,26.70
2018-06-12T14:20:06.535Z,26.40
2018-06-12T14:22:34.980Z,26.20
2018-06-12T14:25:03.488Z,26.20
2018-06-12T14:27:31.921Z,26.10
2018-06-12T14:30:00.425Z,26.00
2018-06-12T14:32:29.077Z,26.00
2018-06-12T14:34:57.596Z,26.10
2018-06-12T14:37:26.108Z,26.10
2018-06-12T14:39:54.703Z,25.70
2018-06-12T14:42:23.414Z,25.70
2018-06-12T14:44:52.120Z,25.60
2018-06-12T14:47:20.719Z,25.50
2018-06-12T14:49:49.392Z,25.50
2018-06-12T14:52:17.982Z,25.60
2018-06-12T14:54:46.645Z,25.50
2018-06-12T14:57:15.223Z,25.40
2018-06-12T14:59:43.776Z,25.10
2018-06-12T15:02:12.231Z,25.00
2018-06-12T15:04:40.868Z,25.30
2018-06-12T15:07:09.348Z,25.70
2018-06-12T15:09:37.948Z,25.90
2018-06-12T15:12:06.455Z,26.00
2018-06-12T15:14:35.147Z,25.90
2018-06-12T15:17:03.664Z,25.90
2018-06-12T15:19:32.341Z,25.80
2018-06-12T15:22:00.860Z,25.70
2018-06-12T15:24:29.393Z,25.60
2018-06-12T15:26:57.923Z,24.90
2018-06-12T15:29:26.484Z,24.30
2018-06-12T15:31:55.090Z,24.00
2018-06-12T15:34:23.619Z,23.50
2018-06-12T15:36:52.167Z,23.10
2018-06-12T15:39:20.657Z,23.10
2018-06-12T15:41:49.191Z,23.00
2018-06-12T15:44:17.724Z,23.10
2018-06-12T15:46:46.290Z,22.90
2018-06-12T15:49:14.771Z,22.80
2018-06-12T15:51:43.310Z,22.70
2018-06-12T15:54:11.787Z,22.70
2018-06-12T15:56:40.288Z,22.80
2018-06-12T15:59:08.763Z,22.60
2018-06-12T16:01:37.418Z,22.30
2018-06-12T16:04:06.157Z,22.10
2018-06-12T16:06:34.808Z,22.00
2018-06-12T16:09:03.736Z,21.30
2018-06-12T16:11:32.356Z,20.60
2018-06-12T16:14:00.979Z,19.80
2018-06-12T16:16:29.588Z,19.00
2018-06-12T16:18:58.157Z,18.60
2018-06-12T16:21:26.765Z,18.20
2018-06-12T16:23:55.396Z,18.20
2018-06-12T16:26:23.875Z,18.10
2018-06-12T16:28:52.433Z,18.20
2018-06-12T16:31:20.999Z,18.40
2018-06-12T16:33:49.569Z,18.50
2018-06-12T16:36:18.297Z,18.50
2018-06-12T16:38:46.895Z,18.60
2018-06-12T16:41:15.890Z,18.70
2018-06-12T16:43:44.513Z,18.80
2018-06-12T16:46:13.234Z,18.60
2018-06-12T16:48:41.905Z,18.50
2018-06-12T16:51:11.412Z,18.30
2018-06-12T16:53:40.217Z,18.10
2018-06-12T16:56:08.954Z,18.00
2018-06-12T16:58:37.712Z,17.90
2018-06-12T17:01:06.477Z,17.80
2018-06-12T17:03:35.269Z,17.80
2018-06-12T17:06:03.930Z,17.90
2018-06-12T17:08:32.474Z,17.80
2018-06-12T17:11:01.138Z,17.90
2018-06-12T17:13:29.827Z,17.80
2018-06-12T17:15:58.722Z,18.00
2018-06-12T17:18:27.274Z,17.80
2018-06-12T17:20:55.930Z,17.70
2018-06-12T17:23:24.617Z,17.70
2018-06-12T17:25:53.166Z,17.70
2018-06-12T17:28:21.785Z,17.80
2018-06-12T17:30:50.413Z,17.80
2018-06-12T17:33:19.246Z,17.70
2018-06-12T17:35:47.937Z,17.70
2018-06-12T17:38:16.941Z,17.80
2018-06-12T17:40:45.750Z,17.80
2018-06-12T17:43:14.502Z,17.90
2018-06-12T17:45:43.269Z,17.80
2018-06-12T17:48:12.710Z,17.60
2018-06-12T17:50:41.427Z,17.60
2018-06-12T17:53:10.276Z,17.70
2018-06-12T17:58:07.559Z,17.70
2018-06-12T18:00:36.551Z,17.70
2018-06-12T18:03:05.214Z,17.70
2018-06-12T18:05:33.919Z,17.80
2018-06-12T18:08:02.616Z,17.80
2018-06-12T18:10:31.270Z,17.80
2018-06-12T18:13:00.062Z,17.90
2018-06-12T18:15:29.171Z,17.80
2018-06-12T18:17:58.572Z,17.80
2018-06-12T18:20:27.777Z,17.80
2018-06-12T18:22:59.286Z,17.80
2018-06-12T18:25:28.089Z,17.90
2018-06-12T18:27:56.749Z,17.90
2018-06-12T18:30:25.437Z,17.60
2018-06-12T18:32:54.153Z,17.40
2018-06-12T18:35:22.953Z,17.30
2018-06-12T18:37:51.551Z,17.20
2018-06-12T18:40:20.153Z,17.20
2018-06-12T18:45:17.621Z,17.30
2018-06-12T18:47:46.254Z,17.30
2018-06-12T18:50:14.735Z,17.40
2018-06-12T18:52:43.349Z,17.30
2018-06-12T18:55:12.222Z,17.40
2018-06-12T18:57:40.824Z,17.30
2018-06-12T19:00:09.459Z,17.40
2018-06-12T19:02:38.615Z,17.40
2018-06-12T19:05:07.225Z,17.50
2018-06-12T19:07:35.859Z,17.60
2018-06-12T19:10:04.682Z,17.40
2018-06-12T19:12:36.867Z,17.30
2018-06-12T19:15:05.788Z,17.30
2018-06-12T19:17:34.502Z,17.30
2018-06-12T19:20:03.677Z,17.40
2018-06-12T19:22:32.434Z,17.40
2018-06-12T19:25:01.440Z,17.40
2018-06-12T19:27:30.202Z,17.40
2018-06-12T19:29:59.007Z,17.40
2018-06-12T19:32:28.634Z,17.40
2018-06-12T19:34:57.944Z,17.30
2018-06-12T19:37:26.835Z,17.30
2018-06-12T19:39:55.841Z,17.40
2018-06-12T19:42:24.737Z,17.30
2018-06-12T19:44:53.708Z,17.30
2018-06-12T19:47:22.810Z,17.30
2018-06-12T19:49:52.682Z,17.30
2018-06-12T19:52:21.712Z,17.20
2018-06-12T19:54:50.569Z,17.10
2018-06-12T19:57:20.324Z,17.00
2018-06-12T19:59:49.305Z,16.90
2018-06-12T20:02:18.046Z,16.90
2018-06-12T20:04:46.805Z,16.80
2018-06-12T20:07:15.327Z,16.80
2018-06-12T20:09:44.014Z,16.70
2018-06-12T20:12:12.756Z,16.60
2018-06-12T20:14:41.309Z,16.60
2018-06-12T20:17:09.935Z,16.50
2018-06-12T20:19:38.575Z,16.60
2018-06-12T20:22:07.132Z,16.60
2018-06-12T20:24:35.672Z,16.60
2018-06-12T20:27:04.218Z,16.60
2018-06-12T20:29:32.875Z,16.60
2018-06-12T20:32:01.536Z,16.60
2018-06-12T20:34:30.171Z,16.60
2018-06-12T20:36:58.786Z,16.60
2018-06-12T20:39:27.280Z,16.60
2018-06-12T20:41:55.908Z,16.70
2018-06-12T20:44:24.637Z,16.70
2018-06-12T20:46:53.193Z,16.60
2018-06-12T20:49:21.806Z,16.60
2018-06-12T20:51:50.341Z,16.60
2018-06-12T20:54:19.022Z,16.70
2018-06-12T20:56:47.678Z,16.70
2018-06-12T20:59:16.209Z,16.70
2018-06-12T21:01:44.754Z,16.70
2018-06-12T21:04:13.221Z,16.50
2018-06-12T21:06:41.783Z,16.50
2018-06-12T21:09:10.247Z,16.40
2018-06-12T21:11:38.744Z,16.40
2018-06-12T21:14:07.281Z,16.40
2018-06-12T21:16:35.854Z,16.40
2018-06-12T21:19:04.340Z,16.30
2018-06-12T21:21:32.800Z,16.40
2018-06-12T21:24:01.332Z,16.40
2018-06-12T21:26:29.817Z,16.50
2018-06-12T21:28:58.325Z,16.50
2018-06-12T21:31:26.826Z,16.50
2018-06-12T21:33:55.723Z,16.50
2018-06-12T21:36:24.504Z,16.50
2018-06-12T21:38:53.095Z,16.50
2018-06-12T21:41:21.561Z,16.50
2018-06-12T21:46:18.274Z,16.40
2018-06-12T21:48:46.730Z,16.40
2018-06-12T21:51:15.233Z,16.40
2018-06-12T21:53:43.713Z,16.30
2018-06-12T21:56:12.195Z,16.30
2018-06-12T21:58:40.619Z,16.30
2018-06-12T22:01:09.031Z,16.20
2018-06-12T22:03:37.747Z,16.30
2018-06-12T22:06:07.718Z,16.30
2018-06-12T22:08:36.207Z,16.30
2018-06-12T22:11:04.628Z,16.20
2018-06-12T22:13:33.127Z,16.20
2018-06-12T22:16:01.674Z,16.20
2018-06-12T22:18:30.546Z,16.10
2018-06-12T22:20:59.020Z,16.10
2018-06-12T22:23:28.320Z,16.10
2018-06-12T22:25:56.806Z,16.10
2018-06-12T22:28:25.228Z,16.00
2018-06-12T22:30:53.706Z,16.00
2018-06-12T22:33:23.216Z,16.00
2018-06-12T22:35:51.841Z,15.90
2018-06-12T22:38:20.834Z,15.90
2018-06-12T22:40:49.385Z,15.90
2018-06-12T22:43:17.872Z,15.90
2018-06-12T22:45:47.611Z,16.00
2018-06-12T22:48:16.083Z,16.00
2018-06-12T22:50:44.526Z,16.10
2018-06-12T22:53:13.076Z,16.10
2018-06-12T22:55:41.585Z,16.10
2018-06-12T22:58:10.073Z,16.10
2018-06-12T23:03:06.625Z,16.10
2018-06-12T23:05:35.114Z,16.10
2018-06-12T23:08:03.524Z,16.10
2018-06-12T23:10:31.913Z,16.10
2018-06-12T23:13:00.336Z,16.10
2018-06-12T23:15:29.141Z,16.20
2018-06-12T23:20:43.788Z,16.20
2018-06-12T23:23:12.662Z,16.10
2018-06-12T23:25:41.087Z,16.10
2018-06-12T23:28:09.533Z,16.10
2018-06-12T23:30:37.941Z,16.10
2018-06-12T23:33:06.393Z,16.10
2018-06-12T23:35:34.844Z,16.10
2018-06-12T23:38:03.321Z,16.20
2018-06-12T23:40:31.943Z,16.10
2018-06-12T23:43:00.480Z,16.10
2018-06-12T23:45:29.528Z,16.10
2018-06-12T23:47:57.951Z,16.00
2018-06-12T23:50:26.411Z,16.00
2018-06-12T23:52:54.811Z,16.00
2018-06-12T23:55:23.252Z,16.10
2018-06-12T23:57:51.731Z,16.10
